createdAt,value
2022-11-02T00:01:57.076Z,4.83
2022-11-02T00:04:43.656Z,6.13
2022-11-02T00:07:29.984Z,5.17
2022-11-02T00:10:16.635Z,4.87
2022-11-02T00:13:03.548Z,4.37
2022-11-02T00:15:50.115Z,3.90
2022-11-02T00:18:37.655Z,3.97
2022-11-02T00:21:25.550Z,4.90
2022-11-02T00:24:12.685Z,3.57
2022-11-02T00:26:59.411Z,3.80
2022-11-02T00:29:45.952Z,3.60
2022-11-02T00:32:32.252Z,3.90
2022-11-02T00:35:18.950Z,3.37
2022-11-02T00:38:05.927Z,3.63
2022-11-02T00:40:52.836Z,4.03
2022-11-02T00:43:39.056Z,3.77
2022-11-02T00:46:25.799Z,4.20
2022-11-02T00:49:13.045Z,7.33
2022-11-02T00:51:59.571Z,5.00
2022-11-02T00:54:48.089Z,5.47
2022-11-02T00:57:35.461Z,5.27
2022-11-02T01:00:22.433Z,5.90
2022-11-02T01:03:08.800Z,5.77
2022-11-02T01:05:55.371Z,5.07
2022-11-02T01:08:42.352Z,4.47
2022-11-02T01:11:28.833Z,4.73
2022-11-02T01:14:14.978Z,4.87
2022-11-02T01:17:01.422Z,3.50
2022-11-02T01:19:47.786Z,3.77
2022-11-02T01:22:34.082Z,3.83
2022-11-02T01:25:20.525Z,3.97
2022-11-02T01:28:07.226Z,3.67
2022-11-02T01:30:54.148Z,3.80
2022-11-02T01:33:46.891Z,3.40
2022-11-02T01:36:33.494Z,3.27
2022-11-02T01:39:20.129Z,2.90
2022-11-02T01:42:21.559Z,4.23
2022-11-02T01:45:11.568Z,3.40
2022-11-02T01:47:58.032Z,2.97
2022-11-02T01:50:44.713Z,3.50
2022-11-02T01:53:33.723Z,3.20
2022-11-02T01:59:20.999Z,4.23
2022-11-02T02:02:16.099Z,3.37
2022-11-02T02:05:08.798Z,3.13
2022-11-02T02:07:56.292Z,2.97
2022-11-02T02:10:43.175Z,3.27
2022-11-02T02:13:29.679Z,3.60
2022-11-02T02:16:21.796Z,3.53
2022-11-02T02:19:34.473Z,2.87
2022-11-02T02:22:51.163Z,2.93
2022-11-02T02:25:54.245Z,2.87
2022-11-02T02:28:51.617Z,3.00
2022-11-02T02:32:07.197Z,2.83
2022-11-02T02:35:04.111Z,2.60
2022-11-02T02:37:56.733Z,2.87
2022-11-02T02:40:58.037Z,2.20
2022-11-02T02:43:50.441Z,2.63
2022-11-02T02:46:46.543Z,2.50
2022-11-02T02:49:40.560Z,2.30
2022-11-02T02:52:28.928Z,2.30
2022-11-02T02:55:25.158Z,2.20
2022-11-02T02:58:20.065Z,2.30
2022-11-02T03:01:11.020Z,2.53
2022-11-02T03:03:57.662Z,2.00
2022-11-02T03:06:52.382Z,2.30
2022-11-02T03:09:48.938Z,2.83
2022-11-02T03:12:50.577Z,3.03
2022-11-02T03:15:54.801Z,2.70
2022-11-02T03:19:03.544Z,3.40
2022-11-02T03:22:17.441Z,3.60
2022-11-02T03:25:16.878Z,2.40
2022-11-02T03:28:17.512Z,2.43
2022-11-02T03:31:14.134Z,3.03
2022-11-02T03:34:13.450Z,2.10
2022-11-02T03:37:15.518Z,3.27
2022-11-02T03:40:17.144Z,2.50
2022-11-02T03:43:05.592Z,2.10
2022-11-02T03:45:56.078Z,3.10
2022-11-02T03:48:48.080Z,1.93
2022-11-02T03:51:39.766Z,2.17
2022-11-02T03:54:49.852Z,2.30
2022-11-02T03:57:48.824Z,2.40
2022-11-02T04:00:47.493Z,1.83
2022-11-02T04:03:38.094Z,2.27
2022-11-02T04:06:25.645Z,2.10
2022-11-02T04:09:12.593Z,2.07
2022-11-02T04:12:18.133Z,2.10
2022-11-02T04:15:05.501Z,2.03
2022-11-02T04:18:10.640Z,2.30
2022-11-02T04:20:57.386Z,3.03
2022-11-02T04:24:02.834Z,2.70
2022-11-02T04:26:49.457Z,2.40
2022-11-02T04:29:37.578Z,2.40
2022-11-02T04:32:42.926Z,3.10
2022-11-02T04:35:34.777Z,3.60
2022-11-02T04:38:40.229Z,3.40
2022-11-02T04:41:41.871Z,1.83
2022-11-02T04:44:33.964Z,2.63
2022-11-02T04:47:35.810Z,1.90
2022-11-02T04:50:22.358Z,2.30
2022-11-02T04:53:09.192Z,2.13
2022-11-02T04:55:57.949Z,1.87
2022-11-02T04:58:57.551Z,2.53
2022-11-02T05:01:44.358Z,2.10
2022-11-02T05:04:31.383Z,1.90
2022-11-02T05:07:18.139Z,1.93
2022-11-02T05:10:05.178Z,2.20
2022-11-02T05:12:58.328Z,2.57
2022-11-02T05:15:47.993Z,3.17
2022-11-02T05:18:34.560Z,2.13
2022-11-02T05:21:21.244Z,2.20
2022-11-02T05:24:09.019Z,2.13
2022-11-02T05:26:56.400Z,2.20
2022-11-02T05:29:45.431Z,2.27
2022-11-02T05:32:32.293Z,2.20
2022-11-02T05:35:20.873Z,2.50
2022-11-02T05:38:07.501Z,2.33
2022-11-02T05:40:55.885Z,4.20
2022-11-02T05:43:44.350Z,3.80
2022-11-02T05:46:33.561Z,3.00
2022-11-02T05:49:20.133Z,3.30
2022-11-02T05:52:06.694Z,2.90
2022-11-02T05:54:53.024Z,3.07
2022-11-02T05:57:39.752Z,2.47
2022-11-02T06:00:25.964Z,1.97
2022-11-02T06:03:12.188Z,1.67
2022-11-02T06:06:07.408Z,1.80
2022-11-02T06:08:54.658Z,1.97
2022-11-02T06:11:41.124Z,1.80
2022-11-02T06:14:27.339Z,1.90
2022-11-02T06:17:13.650Z,1.53
2022-11-02T06:19:59.880Z,1.50
2022-11-02T06:22:46.539Z,1.57
2022-11-02T06:25:33.022Z,1.70
2022-11-02T06:28:19.863Z,1.43
2022-11-02T06:31:06.910Z,1.87
2022-11-02T06:33:53.523Z,2.00
2022-11-02T06:36:39.751Z,1.70
2022-11-02T06:39:26.511Z,1.80
2022-11-02T06:42:13.041Z,2.03
2022-11-02T06:45:02.499Z,2.10
2022-11-02T06:47:49.159Z,1.93
2022-11-02T06:50:35.867Z,2.00
2022-11-02T06:53:22.189Z,1.90
2022-11-02T06:56:09.616Z,1.90
2022-11-02T06:58:56.044Z,2.00
2022-11-02T07:01:42.466Z,1.90
2022-11-02T07:04:28.972Z,2.67
2022-11-02T07:07:15.574Z,2.33
2022-11-02T07:10:01.738Z,2.27
2022-11-02T07:12:48.059Z,2.20
2022-11-02T07:15:34.288Z,2.20
2022-11-02T07:18:21.402Z,2.07
2022-11-02T07:21:10.405Z,2.20
2022-11-02T07:23:56.802Z,2.10
2022-11-02T07:26:43.181Z,2.33
2022-11-02T07:29:29.456Z,2.30
2022-11-02T07:32:15.699Z,2.13
2022-11-02T07:35:02.271Z,1.70
2022-11-02T07:38:00.345Z,1.97
2022-11-02T07:40:50.650Z,2.67
2022-11-02T07:43:39.941Z,1.90
2022-11-02T07:46:49.827Z,2.03
2022-11-02T07:49:36.334Z,3.20
2022-11-02T07:52:22.666Z,1.73
2022-11-02T07:55:09.248Z,2.23
2022-11-02T07:58:01.034Z,1.73
2022-11-02T08:00:47.310Z,1.53
2022-11-02T08:03:33.978Z,1.50
2022-11-02T08:06:20.360Z,1.80
2022-11-02T08:09:06.642Z,1.87
2022-11-02T08:11:53.077Z,1.50
2022-11-02T08:14:39.775Z,1.60
2022-11-02T08:17:26.144Z,1.33
2022-11-02T08:20:12.700Z,1.50
2022-11-02T08:22:59.390Z,1.60
2022-11-02T08:25:47.335Z,1.63
2022-11-02T08:28:36.640Z,2.53
2022-11-02T08:31:23.809Z,1.30
2022-11-02T08:34:12.039Z,1.53
2022-11-02T08:36:59.651Z,1.17
2022-11-02T08:39:46.326Z,1.50
2022-11-02T08:42:32.630Z,1.37
2022-11-02T08:45:19.097Z,1.73
2022-11-02T08:48:07.360Z,2.17
2022-11-02T08:50:55.739Z,1.50
2022-11-02T08:53:43.790Z,1.53
2022-11-02T08:56:33.644Z,1.60
2022-11-02T08:59:19.888Z,1.50
2022-11-02T09:02:06.754Z,1.30
2022-11-02T09:04:53.194Z,1.70
2022-11-02T09:07:39.974Z,1.60
2022-11-02T09:10:28.515Z,1.33
2022-11-02T09:13:18.358Z,1.80
2022-11-02T09:16:05.155Z,1.50
2022-11-02T09:18:51.682Z,1.90
2022-11-02T09:21:38.246Z,1.23
2022-11-02T09:24:24.629Z,1.60
2022-11-02T09:27:11.226Z,1.77
2022-11-02T09:29:57.576Z,1.90
2022-11-02T09:32:43.887Z,2.03
2022-11-02T09:35:33.533Z,3.93
2022-11-02T09:38:20.203Z,1.80
2022-11-02T09:41:39.255Z,2.37
2022-11-02T09:44:37.138Z,1.57
2022-11-02T09:48:11.221Z,1.83
2022-11-02T09:50:48.111Z,1.40
2022-11-02T09:53:52.637Z,1.30
2022-11-02T09:56:40.571Z,1.73
2022-11-02T09:59:27.677Z,1.70
2022-11-02T10:02:29.465Z,1.63
2022-11-02T10:05:48.119Z,1.70
2022-11-02T10:08:42.637Z,1.50
2022-11-02T10:11:52.390Z,1.37
2022-11-02T10:15:14.754Z,1.50
2022-11-02T10:18:03.882Z,2.57
2022-11-02T10:20:59.848Z,1.43
2022-11-02T10:23:52.254Z,2.43
2022-11-02T10:26:43.382Z,1.50
2022-11-02T10:29:48.461Z,1.90
2022-11-02T10:32:38.593Z,1.50
2022-11-02T10:35:45.775Z,1.93
2022-11-02T10:39:05.670Z,1.40
2022-11-02T10:42:06.233Z,1.83
2022-11-02T10:45:14.687Z,1.80
2022-11-02T10:48:32.305Z,1.50
2022-11-02T10:51:20.027Z,1.63
2022-11-02T10:54:13.758Z,1.60
2022-11-02T10:57:13.091Z,1.67
2022-11-02T11:00:26.749Z,1.80
2022-11-02T11:03:18.056Z,1.47
2022-11-02T11:06:05.044Z,2.83
2022-11-02T11:08:52.115Z,1.27
2022-11-02T11:11:39.040Z,1.70
2022-11-02T11:20:47.469Z,1.53
2022-11-02T11:23:33.938Z,1.93
2022-11-02T11:26:30.286Z,1.60
2022-11-02T11:29:22.809Z,1.60
2022-11-02T11:32:30.485Z,1.60
2022-11-02T11:35:20.343Z,1.30
2022-11-02T11:38:17.612Z,1.60
2022-11-02T11:41:04.726Z,1.90
2022-11-02T11:43:53.050Z,1.40
2022-11-02T11:46:52.513Z,1.57
2022-11-02T11:50:07.717Z,1.53
2022-11-02T11:53:16.502Z,2.93
2022-11-02T11:56:02.871Z,1.60
2022-11-02T11:58:52.284Z,1.70
2022-11-02T12:01:40.328Z,1.73
2022-11-02T12:04:37.453Z,1.83
2022-11-02T12:07:30.138Z,2.23
2022-11-02T12:10:19.656Z,1.60
2022-11-02T12:13:36.669Z,1.33
2022-11-02T12:17:01.977Z,1.43
2022-11-02T12:20:11.964Z,1.00
2022-11-02T12:23:01.654Z,1.63
2022-11-02T12:26:07.249Z,1.40
2022-11-02T12:29:27.854Z,1.63
2022-11-02T12:32:59.115Z,1.63
2022-11-02T12:36:05.218Z,1.80
2022-11-02T12:39:08.172Z,1.50
2022-11-02T12:42:24.907Z,1.50
2022-11-02T12:45:25.355Z,1.63
2022-11-02T12:48:21.591Z,1.77
2022-11-02T12:51:25.585Z,1.50
2022-11-02T12:54:18.227Z,1.63
2022-11-02T12:57:07.958Z,1.93
2022-11-02T13:00:00.888Z,1.67
2022-11-02T13:02:47.704Z,1.50
2022-11-02T13:05:45.962Z,1.87
2022-11-02T13:08:39.874Z,1.67
2022-11-02T13:11:34.240Z,2.20
2022-11-02T13:14:23.961Z,2.27
2022-11-02T13:17:25.314Z,10.73
2022-11-02T13:20:24.352Z,2.83
2022-11-02T13:23:33.736Z,2.33
2022-11-02T13:26:34.370Z,2.10
2022-11-02T13:29:30.599Z,1.93
2022-11-02T13:32:32.613Z,2.10
2022-11-02T13:35:33.205Z,1.90
2022-11-02T13:38:42.339Z,1.50
2022-11-02T13:41:48.309Z,1.47
2022-11-02T13:44:59.165Z,1.67
2022-11-02T13:48:07.879Z,2.00
2022-11-02T13:50:58.969Z,1.30
2022-11-02T13:53:54.207Z,1.50
2022-11-02T13:56:41.488Z,1.80
2022-11-02T13:59:32.939Z,1.70
2022-11-02T14:02:23.189Z,1.53
2022-11-02T14:05:25.265Z,1.30
2022-11-02T14:08:20.265Z,2.00
2022-11-02T14:11:23.929Z,1.30
2022-11-02T14:14:10.040Z,1.80
2022-11-02T14:16:58.651Z,1.30
2022-11-02T14:19:47.948Z,1.37
2022-11-02T14:22:34.460Z,1.67
2022-11-02T14:25:20.755Z,1.80
2022-11-02T14:28:22.503Z,1.60
2022-11-02T14:31:36.548Z,1.70
2022-11-02T14:35:00.500Z,1.67
2022-11-02T14:38:08.979Z,2.10
2022-11-02T14:41:22.704Z,1.80
2022-11-02T14:44:28.862Z,1.60
2022-11-02T14:47:17.790Z,1.73
2022-11-02T14:50:20.840Z,1.50
2022-11-02T14:53:16.187Z,2.30
2022-11-02T14:56:03.310Z,1.73
2022-11-02T14:58:54.332Z,1.53
2022-11-02T15:02:00.108Z,1.50
2022-11-02T15:04:54.221Z,1.50
2022-11-02T15:07:55.716Z,2.10
2022-11-02T15:10:45.059Z,2.23
2022-11-02T15:13:45.585Z,2.10
2022-11-02T15:16:40.076Z,5.40
2022-11-02T15:19:43.884Z,3.73
2022-11-02T15:22:38.191Z,3.10
2022-11-02T15:25:32.335Z,2.70
2022-11-02T15:28:27.680Z,1.83
2022-11-02T15:31:23.187Z,2.17
2022-11-02T15:34:20.648Z,1.60
2022-11-02T15:37:08.715Z,3.10
2022-11-02T15:39:58.745Z,2.47
2022-11-02T15:42:56.809Z,2.50
2022-11-02T15:46:00.327Z,1.60
2022-11-02T15:48:56.870Z,2.50
2022-11-02T15:51:49.682Z,3.40
2022-11-02T15:54:46.385Z,2.10
2022-11-02T15:57:50.188Z,2.33
2022-11-02T16:00:36.597Z,2.10
2022-11-02T16:03:22.715Z,1.80
2022-11-02T16:06:09.294Z,2.20
2022-11-02T16:09:01.194Z,2.77
2022-11-02T16:12:12.132Z,2.13
2022-11-02T16:15:05.719Z,2.20
2022-11-02T16:17:52.724Z,2.13
2022-11-02T16:20:40.126Z,2.60
2022-11-02T16:23:30.057Z,2.53
2022-11-02T16:26:34.841Z,2.87
2022-11-02T16:29:31.663Z,2.83
2022-11-02T16:32:18.114Z,2.33
2022-11-02T16:35:04.916Z,2.70
2022-11-02T16:37:51.250Z,2.20
2022-11-02T16:40:37.626Z,3.10
2022-11-02T16:43:26.045Z,3.20
2022-11-02T16:46:16.016Z,3.63
2022-11-02T16:49:13.487Z,3.30
2022-11-02T16:52:06.987Z,3.60
2022-11-02T16:54:53.166Z,4.27
2022-11-02T16:57:45.626Z,3.50
2022-11-02T17:00:32.296Z,4.37
2022-11-02T17:03:26.597Z,4.90
2022-11-02T17:06:13.031Z,6.13
2022-11-02T17:08:59.315Z,5.37
2022-11-02T17:11:45.826Z,5.70
2022-11-02T17:14:33.032Z,4.83
2022-11-02T17:17:22.398Z,4.73
2022-11-02T17:20:14.477Z,4.80
2022-11-02T17:23:07.181Z,5.27
2022-11-02T17:26:21.956Z,4.90
2022-11-02T17:29:26.718Z,3.47
2022-11-02T17:32:17.075Z,3.83
2022-11-02T17:35:04.871Z,5.17
2022-11-02T17:37:53.271Z,4.97
2022-11-02T17:40:39.845Z,4.50
2022-11-02T17:43:27.479Z,4.33
2022-11-02T17:46:14.086Z,4.83
2022-11-02T17:49:00.342Z,4.50
2022-11-02T17:51:47.242Z,4.80
2022-11-02T17:54:33.452Z,3.70
2022-11-02T17:57:20.812Z,4.00
2022-11-02T18:00:08.015Z,3.20
2022-11-02T18:02:58.871Z,3.47
2022-11-02T18:05:49.433Z,4.90
2022-11-02T18:08:57.024Z,6.20
2022-11-02T18:11:43.371Z,4.47
2022-11-02T18:14:29.897Z,5.03
2022-11-02T18:17:16.094Z,5.57
2022-11-02T18:20:02.500Z,6.70
2022-11-02T18:22:50.244Z,5.27
2022-11-02T18:25:36.796Z,5.10
2022-11-02T18:28:23.411Z,4.20
2022-11-02T18:31:09.685Z,5.10
2022-11-02T18:33:56.590Z,4.47
2022-11-02T18:36:43.222Z,4.63
2022-11-02T18:39:29.568Z,4.17
2022-11-02T18:42:16.138Z,4.27
2022-11-02T18:45:03.020Z,5.10
2022-11-02T18:47:49.432Z,4.90
2022-11-02T18:50:35.714Z,5.03
2022-11-02T18:53:22.050Z,5.40
2022-11-02T18:56:09.567Z,4.10
2022-11-02T18:58:56.912Z,4.27
2022-11-02T19:01:43.235Z,4.50
2022-11-02T19:04:31.080Z,4.70
2022-11-02T19:07:36.203Z,4.80
2022-11-02T19:10:22.499Z,6.03
2022-11-02T19:13:08.813Z,7.03
2022-11-02T19:15:55.504Z,6.93
2022-11-02T19:18:42.264Z,6.43
2022-11-02T19:21:28.668Z,6.97
2022-11-02T19:24:15.248Z,7.83
2022-11-02T19:27:01.535Z,8.27
2022-11-02T19:29:47.929Z,7.43
2022-11-02T19:32:34.445Z,7.60
2022-11-02T19:35:20.891Z,7.23
2022-11-02T19:38:07.144Z,6.57
2022-11-02T19:41:11.288Z,8.13
2022-11-02T19:43:57.826Z,6.10
2022-11-02T19:46:44.218Z,5.80
2022-11-02T19:49:30.523Z,5.60
2022-11-02T19:52:17.148Z,7.67
2022-11-02T19:55:03.602Z,7.07
2022-11-02T19:57:49.864Z,8.47
2022-11-02T20:00:36.238Z,6.97
2022-11-02T20:03:23.086Z,7.20
2022-11-02T20:06:12.834Z,7.30
2022-11-02T20:09:01.782Z,8.13
2022-11-02T20:11:48.478Z,9.13
2022-11-02T20:14:36.305Z,7.83
2022-11-02T20:17:32.096Z,6.93
2022-11-02T20:20:24.841Z,5.80
2022-11-02T20:23:10.893Z,6.57
2022-11-02T20:26:02.437Z,6.00
2022-11-02T20:28:49.458Z,7.07
2022-11-02T20:31:39.174Z,5.53
2022-11-02T20:34:25.688Z,7.10
2022-11-02T20:37:11.941Z,6.27
2022-11-02T20:39:58.480Z,6.67
2022-11-02T20:42:44.784Z,5.47
2022-11-02T20:45:30.994Z,5.97
2022-11-02T20:48:17.252Z,6.60
2022-11-02T20:51:04.329Z,5.23
2022-11-02T20:53:51.159Z,5.90
2022-11-02T20:56:37.543Z,9.03
2022-11-02T20:59:23.836Z,6.93
2022-11-02T21:02:11.607Z,5.93
2022-11-02T21:04:58.112Z,6.83
2022-11-02T21:07:44.320Z,6.63
2022-11-02T21:10:30.799Z,7.33
2022-11-02T21:13:35.791Z,6.57
2022-11-02T21:16:22.368Z,7.13
2022-11-02T21:19:08.767Z,7.40
2022-11-02T21:21:59.353Z,7.10
2022-11-02T21:24:46.266Z,6.43
2022-11-02T21:27:32.651Z,6.47
2022-11-02T21:30:19.306Z,15.93
2022-11-02T21:33:06.061Z,7.87
2022-11-02T21:35:54.922Z,8.43
2022-11-02T21:38:42.170Z,5.60
2022-11-02T21:41:29.483Z,5.57
2022-11-02T21:44:16.087Z,5.30
2022-11-02T21:47:02.204Z,5.77
2022-11-02T21:49:48.528Z,5.77
2022-11-02T21:52:37.043Z,5.60
2022-11-02T21:55:24.132Z,5.33
2022-11-02T21:58:10.907Z,5.10
2022-11-02T22:01:17.434Z,6.33
2022-11-02T22:04:05.397Z,5.73
2022-11-02T22:06:52.449Z,6.30
2022-11-02T22:09:38.765Z,6.07
2022-11-02T22:12:43.669Z,6.57
2022-11-02T22:15:31.353Z,5.50
2022-11-02T22:18:19.572Z,4.80
2022-11-02T22:21:06.197Z,5.00
2022-11-02T22:23:53.160Z,5.37
2022-11-02T22:26:40.247Z,5.40
2022-11-02T22:29:26.765Z,5.20
2022-11-02T22:32:14.477Z,6.37
2022-11-02T22:35:01.001Z,6.43
2022-11-02T22:38:06.269Z,5.20
2022-11-02T22:40:59.741Z,5.77
2022-11-02T22:43:46.755Z,5.30
2022-11-02T22:46:36.361Z,6.00
2022-11-02T22:49:22.538Z,5.10
2022-11-02T22:52:08.842Z,6.20
2022-11-02T22:54:55.006Z,5.70
2022-11-02T22:57:41.535Z,5.73
2022-11-02T23:00:27.810Z,5.03
2022-11-02T23:03:14.312Z,6.00
2022-11-02T23:06:01.949Z,5.33
2022-11-02T23:08:50.178Z,6.73
2022-11-02T23:11:37.548Z,5.60
2022-11-02T23:14:23.894Z,4.93
2022-11-02T23:17:10.268Z,4.43
2022-11-02T23:19:56.692Z,4.47
2022-11-02T23:22:42.902Z,5.63
2022-11-02T23:25:29.301Z,4.20
2022-11-02T23:28:34.321Z,4.30
2022-11-02T23:31:39.255Z,5.47
2022-11-02T23:34:25.470Z,4.50
2022-11-02T23:37:11.835Z,4.47
2022-11-02T23:39:58.160Z,4.87
2022-11-02T23:42:44.721Z,5.00
2022-11-02T23:45:31.281Z,4.67
2022-11-02T23:48:17.587Z,4.50
2022-11-02T23:51:22.673Z,4.90
2022-11-02T23:54:27.504Z,5.67
2022-11-02T23:57:13.726Z,5.53
2022-11-02T23:59:59.968Z,5.07
